sensor_id;sensor_type;location;lat;lon;timestamp;P1;durP1;ratioP1;P2;durP2;ratioP2
33160;SDS011;19522;45.656;11.302;2023-09-12T00:02:01;12.23;;;8.93;;
33160;SDS011;19522;45.656;11.302;2023-09-12T00:04:26;10.05;;;8.98;;
33160;SDS011;19522;45.656;11.302;2023-09-12T00:06:53;9.85;;;8.40;;
33160;SDS011;19522;45.656;11.302;2023-09-12T00:09:18;10.15;;;9.00;;
33160;SDS011;19522;45.656;11.302;2023-09-12T00:11:44;10.02;;;8.45;;
33160;SDS011;19522;45.656;11.302;2023-09-12T00:14:09;12.65;;;9.38;;
33160;SDS011;19522;45.656;11.302;2023-09-12T00:16:35;12.75;;;9.25;;
33160;SDS011;19522;45.656;11.302;2023-09-12T00:19:00;11.32;;;9.10;;
33160;SDS011;19522;45.656;11.302;2023-09-12T00:21:26;10.75;;;8.63;;
33160;SDS011;19522;45.656;11.302;2023-09-12T00:23:51;9.57;;;8.30;;
33160;SDS011;19522;45.656;11.302;2023-09-12T00:26:17;13.95;;;9.85;;
33160;SDS011;19522;45.656;11.302;2023-09-12T00:28:42;10.10;;;8.50;;
33160;SDS011;19522;45.656;11.302;2023-09-12T00:31:08;12.23;;;9.40;;
33160;SDS011;19522;45.656;11.302;2023-09-12T00:33:33;12.07;;;8.82;;
33160;SDS011;19522;45.656;11.302;2023-09-12T00:35:59;10.55;;;9.25;;
33160;SDS011;19522;45.656;11.302;2023-09-12T00:38:24;11.27;;;9.43;;
33160;SDS011;19522;45.656;11.302;2023-09-12T00:40:50;10.50;;;8.65;;
33160;SDS011;19522;45.656;11.302;2023-09-12T00:43:15;9.02;;;8.13;;
33160;SDS011;19522;45.656;11.302;2023-09-12T00:45:41;9.80;;;8.27;;
33160;SDS011;19522;45.656;11.302;2023-09-12T00:48:08;10.88;;;8.73;;
33160;SDS011;19522;45.656;11.302;2023-09-12T00:50:34;12.90;;;9.35;;
33160;SDS011;19522;45.656;11.302;2023-09-12T00:53:01;11.07;;;9.13;;
33160;SDS011;19522;45.656;11.302;2023-09-12T00:55:28;9.68;;;8.38;;
33160;SDS011;19522;45.656;11.302;2023-09-12T00:57:55;10.23;;;8.65;;
33160;SDS011;19522;45.656;11.302;2023-09-12T01:00:21;11.50;;;9.10;;
33160;SDS011;19522;45.656;11.302;2023-09-12T01:02:47;10.95;;;9.13;;
33160;SDS011;19522;45.656;11.302;2023-09-12T01:05:15;14.35;;;9.02;;
33160;SDS011;19522;45.656;11.302;2023-09-12T01:07:41;14.23;;;9.32;;
33160;SDS011;19522;45.656;11.302;2023-09-12T01:10:08;10.13;;;8.73;;
33160;SDS011;19522;45.656;11.302;2023-09-12T01:12:34;11.40;;;9.30;;
33160;SDS011;19522;45.656;11.302;2023-09-12T01:15:01;10.00;;;8.90;;
33160;SDS011;19522;45.656;11.302;2023-09-12T01:17:29;13.27;;;9.68;;
33160;SDS011;19522;45.656;11.302;2023-09-12T01:19:55;12.43;;;9.40;;
33160;SDS011;19522;45.656;11.302;2023-09-12T01:25:15;12.40;;;8.68;;
33160;SDS011;19522;45.656;11.302;2023-09-12T01:27:58;10.70;;;8.50;;
33160;SDS011;19522;45.656;11.302;2023-09-12T01:30:27;13.13;;;9.15;;
33160;SDS011;19522;45.656;11.302;2023-09-12T01:32:53;11.90;;;9.27;;
33160;SDS011;19522;45.656;11.302;2023-09-12T01:35:20;11.73;;;9.10;;
33160;SDS011;19522;45.656;11.302;2023-09-12T01:37:45;10.70;;;8.77;;
33160;SDS011;19522;45.656;11.302;2023-09-12T01:40:11;10.55;;;8.82;;
33160;SDS011;19522;45.656;11.302;2023-09-12T01:42:38;12.30;;;9.75;;
33160;SDS011;19522;45.656;11.302;2023-09-12T01:45:13;11.00;;;9.35;;
33160;SDS011;19522;45.656;11.302;2023-09-12T01:47:41;12.30;;;9.95;;
33160;SDS011;19522;45.656;11.302;2023-09-12T01:50:08;12.35;;;9.30;;
33160;SDS011;19522;45.656;11.302;2023-09-12T01:52:35;11.35;;;9.43;;
33160;SDS011;19522;45.656;11.302;2023-09-12T01:55:01;12.60;;;8.85;;
33160;SDS011;19522;45.656;11.302;2023-09-12T01:57:27;11.70;;;9.32;;
33160;SDS011;19522;45.656;11.302;2023-09-12T01:59:54;11.27;;;8.35;;
33160;SDS011;19522;45.656;11.302;2023-09-12T02:02:19;17.38;;;9.80;;
33160;SDS011;19522;45.656;11.302;2023-09-12T02:04:59;10.38;;;8.25;;
33160;SDS011;19522;45.656;11.302;2023-09-12T02:07:39;11.43;;;9.07;;
33160;SDS011;19522;45.656;11.302;2023-09-12T02:10:06;10.45;;;8.85;;
33160;SDS011;19522;45.656;11.302;2023-09-12T02:12:32;12.05;;;9.35;;
33160;SDS011;19522;45.656;11.302;2023-09-12T02:14:58;11.55;;;8.60;;
33160;SDS011;19522;45.656;11.302;2023-09-12T02:17:26;11.02;;;8.85;;
33160;SDS011;19522;45.656;11.302;2023-09-12T02:19:51;10.18;;;9.00;;
33160;SDS011;19522;45.656;11.302;2023-09-12T02:22:17;10.27;;;7.95;;
33160;SDS011;19522;45.656;11.302;2023-09-12T02:24:42;12.60;;;9.70;;
33160;SDS011;19522;45.656;11.302;2023-09-12T02:27:08;10.85;;;8.73;;
33160;SDS011;19522;45.656;11.302;2023-09-12T02:29:33;10.88;;;9.13;;
33160;SDS011;19522;45.656;11.302;2023-09-12T02:31:59;11.57;;;8.35;;
33160;SDS011;19522;45.656;11.302;2023-09-12T02:34:25;10.32;;;9.23;;
33160;SDS011;19522;45.656;11.302;2023-09-12T02:36:50;10.35;;;8.75;;
33160;SDS011;19522;45.656;11.302;2023-09-12T02:39:16;14.75;;;9.45;;
33160;SDS011;19522;45.656;11.302;2023-09-12T02:41:41;10.35;;;8.73;;
33160;SDS011;19522;45.656;11.302;2023-09-12T02:44:07;11.10;;;8.95;;
33160;SDS011;19522;45.656;11.302;2023-09-12T02:46:33;11.07;;;9.18;;
33160;SDS011;19522;45.656;11.302;2023-09-12T02:48:58;11.65;;;8.93;;
33160;SDS011;19522;45.656;11.302;2023-09-12T02:51:28;10.63;;;9.23;;
33160;SDS011;19522;45.656;11.302;2023-09-12T02:53:53;10.98;;;9.57;;
33160;SDS011;19522;45.656;11.302;2023-09-12T02:56:19;10.38;;;8.63;;
33160;SDS011;19522;45.656;11.302;2023-09-12T02:58:47;11.00;;;9.30;;
33160;SDS011;19522;45.656;11.302;2023-09-12T03:01:16;11.45;;;8.98;;
33160;SDS011;19522;45.656;11.302;2023-09-12T03:03:43;12.60;;;9.60;;
33160;SDS011;19522;45.656;11.302;2023-09-12T03:06:11;12.45;;;9.07;;
33160;SDS011;19522;45.656;11.302;2023-09-12T03:08:38;12.35;;;9.55;;
33160;SDS011;19522;45.656;11.302;2023-09-12T03:11:04;10.90;;;9.40;;
33160;SDS011;19522;45.656;11.302;2023-09-12T03:13:32;12.75;;;9.63;;
33160;SDS011;19522;45.656;11.302;2023-09-12T03:15:58;12.70;;;9.25;;
33160;SDS011;19522;45.656;11.302;2023-09-12T03:18:23;10.93;;;9.68;;
33160;SDS011;19522;45.656;11.302;2023-09-12T03:20:49;12.77;;;9.32;;
33160;SDS011;19522;45.656;11.302;2023-09-12T03:23:14;10.93;;;8.93;;
33160;SDS011;19522;45.656;11.302;2023-09-12T03:25:40;10.43;;;9.32;;
33160;SDS011;19522;45.656;11.302;2023-09-12T03:28:08;11.70;;;9.70;;
33160;SDS011;19522;45.656;11.302;2023-09-12T03:30:34;10.77;;;9.05;;
33160;SDS011;19522;45.656;11.302;2023-09-12T03:33:00;12.52;;;10.00;;
33160;SDS011;19522;45.656;11.302;2023-09-12T03:35:27;10.93;;;9.52;;
33160;SDS011;19522;45.656;11.302;2023-09-12T03:37:53;12.48;;;9.88;;
33160;SDS011;19522;45.656;11.302;2023-09-12T03:40:19;15.63;;;10.63;;
33160;SDS011;19522;45.656;11.302;2023-09-12T03:42:45;11.38;;;9.55;;
33160;SDS011;19522;45.656;11.302;2023-09-12T03:45:10;10.60;;;9.25;;
33160;SDS011;19522;45.656;11.302;2023-09-12T03:47:36;12.57;;;9.93;;
33160;SDS011;19522;45.656;11.302;2023-09-12T03:50:02;10.98;;;9.88;;
33160;SDS011;19522;45.656;11.302;2023-09-12T03:52:28;12.57;;;10.20;;
33160;SDS011;19522;45.656;11.302;2023-09-12T03:54:54;13.93;;;9.85;;
33160;SDS011;19522;45.656;11.302;2023-09-12T03:57:20;10.80;;;9.13;;
33160;SDS011;19522;45.656;11.302;2023-09-12T03:59:46;11.75;;;10.02;;
33160;SDS011;19522;45.656;11.302;2023-09-12T04:02:12;12.88;;;9.77;;
33160;SDS011;19522;45.656;11.302;2023-09-12T04:04:37;9.95;;;8.95;;
33160;SDS011;19522;45.656;11.302;2023-09-12T04:07:04;10.10;;;9.02;;
33160;SDS011;19522;45.656;11.302;2023-09-12T04:09:29;11.10;;;9.75;;
33160;SDS011;19522;45.656;11.302;2023-09-12T04:11:55;12.10;;;9.77;;
33160;SDS011;19522;45.656;11.302;2023-09-12T04:14:21;12.05;;;10.07;;
33160;SDS011;19522;45.656;11.302;2023-09-12T04:16:47;11.55;;;9.50;;
33160;SDS011;19522;45.656;11.302;2023-09-12T04:19:15;11.90;;;9.40;;
33160;SDS011;19522;45.656;11.302;2023-09-12T04:21:41;12.20;;;9.75;;
33160;SDS011;19522;45.656;11.302;2023-09-12T04:24:07;12.55;;;9.65;;
33160;SDS011;19522;45.656;11.302;2023-09-12T04:26:33;12.25;;;9.85;;
33160;SDS011;19522;45.656;11.302;2023-09-12T04:28:59;11.35;;;10.13;;
33160;SDS011;19522;45.656;11.302;2023-09-12T04:31:24;11.70;;;10.27;;
33160;SDS011;19522;45.656;11.302;2023-09-12T04:33:50;12.68;;;9.70;;
33160;SDS011;19522;45.656;11.302;2023-09-12T04:36:17;12.02;;;9.40;;
33160;SDS011;19522;45.656;11.302;2023-09-12T04:38:43;13.00;;;9.82;;
33160;SDS011;19522;45.656;11.302;2023-09-12T04:41:11;11.80;;;9.77;;
33160;SDS011;19522;45.656;11.302;2023-09-12T04:43:40;13.00;;;10.70;;
33160;SDS011;19522;45.656;11.302;2023-09-12T04:46:06;10.55;;;9.45;;
33160;SDS011;19522;45.656;11.302;2023-09-12T04:48:31;12.43;;;10.07;;
33160;SDS011;19522;45.656;11.302;2023-09-12T04:50:57;11.43;;;9.35;;
33160;SDS011;19522;45.656;11.302;2023-09-12T04:53:22;14.00;;;10.20;;
33160;SDS011;19522;45.656;11.302;2023-09-12T04:55:48;12.32;;;10.00;;
33160;SDS011;19522;45.656;11.302;2023-09-12T04:58:13;15.57;;;9.73;;
33160;SDS011;19522;45.656;11.302;2023-09-12T05:00:39;10.30;;;9.20;;
33160;SDS011;19522;45.656;11.302;2023-09-12T05:03:05;11.40;;;9.93;;
33160;SDS011;19522;45.656;11.302;2023-09-12T05:05:31;12.82;;;10.05;;
33160;SDS011;19522;45.656;11.302;2023-09-12T05:08:00;13.75;;;9.70;;
33160;SDS011;19522;45.656;11.302;2023-09-12T05:10:25;13.57;;;10.48;;
33160;SDS011;19522;45.656;11.302;2023-09-12T05:12:51;11.90;;;9.60;;
33160;SDS011;19522;45.656;11.302;2023-09-12T05:15:16;13.57;;;9.95;;
33160;SDS011;19522;45.656;11.302;2023-09-12T05:17:45;11.15;;;9.77;;
33160;SDS011;19522;45.656;11.302;2023-09-12T05:20:10;11.10;;;9.25;;
33160;SDS011;19522;45.656;11.302;2023-09-12T05:22:36;13.02;;;10.63;;
33160;SDS011;19522;45.656;11.302;2023-09-12T05:25:01;12.77;;;9.15;;
33160;SDS011;19522;45.656;11.302;2023-09-12T05:27:27;14.98;;;9.95;;
33160;SDS011;19522;45.656;11.302;2023-09-12T05:29:52;13.23;;;9.80;;
33160;SDS011;19522;45.656;11.302;2023-09-12T05:32:18;12.88;;;10.38;;
33160;SDS011;19522;45.656;11.302;2023-09-12T05:34:43;14.18;;;9.63;;
33160;SDS011;19522;45.656;11.302;2023-09-12T05:37:10;12.63;;;10.75;;
33160;SDS011;19522;45.656;11.302;2023-09-12T05:39:35;13.77;;;9.88;;
33160;SDS011;19522;45.656;11.302;2023-09-12T05:42:01;13.57;;;10.23;;
33160;SDS011;19522;45.656;11.302;2023-09-12T05:44:26;11.35;;;10.07;;
33160;SDS011;19522;45.656;11.302;2023-09-12T05:46:52;12.95;;;10.30;;
33160;SDS011;19522;45.656;11.302;2023-09-12T05:49:20;11.60;;;9.68;;
33160;SDS011;19522;45.656;11.302;2023-09-12T05:51:46;13.95;;;9.77;;
33160;SDS011;19522;45.656;11.302;2023-09-12T05:54:11;12.55;;;10.18;;
33160;SDS011;19522;45.656;11.302;2023-09-12T05:56:38;13.35;;;9.57;;
33160;SDS011;19522;45.656;11.302;2023-09-12T05:59:05;15.40;;;10.05;;
33160;SDS011;19522;45.656;11.302;2023-09-12T06:01:31;14.57;;;10.50;;
33160;SDS011;19522;45.656;11.302;2023-09-12T06:03:56;14.38;;;10.38;;
33160;SDS011;19522;45.656;11.302;2023-09-12T06:06:22;11.35;;;9.95;;
33160;SDS011;19522;45.656;11.302;2023-09-12T06:08:48;13.13;;;9.90;;
33160;SDS011;19522;45.656;11.302;2023-09-12T06:11:13;11.30;;;9.48;;
33160;SDS011;19522;45.656;11.302;2023-09-12T06:13:39;12.48;;;10.23;;
33160;SDS011;19522;45.656;11.302;2023-09-12T06:16:05;11.35;;;9.45;;
33160;SDS011;19522;45.656;11.302;2023-09-12T06:18:31;11.85;;;9.23;;
33160;SDS011;19522;45.656;11.302;2023-09-12T06:20:58;11.13;;;9.45;;
33160;SDS011;19522;45.656;11.302;2023-09-12T06:23:24;12.00;;;10.05;;
33160;SDS011;19522;45.656;11.302;2023-09-12T06:25:49;10.60;;;9.50;;
33160;SDS011;19522;45.656;11.302;2023-09-12T06:28:24;12.10;;;10.18;;
33160;SDS011;19522;45.656;11.302;2023-09-12T06:30:53;11.77;;;10.23;;
33160;SDS011;19522;45.656;11.302;2023-09-12T06:33:18;10.52;;;9.43;;
33160;SDS011;19522;45.656;11.302;2023-09-12T06:35:47;14.75;;;9.68;;
33160;SDS011;19522;45.656;11.302;2023-09-12T06:38:14;11.20;;;9.38;;
33160;SDS011;19522;45.656;11.302;2023-09-12T06:40:40;14.10;;;9.80;;
33160;SDS011;19522;45.656;11.302;2023-09-12T06:43:05;17.00;;;9.57;;
33160;SDS011;19522;45.656;11.302;2023-09-12T06:45:30;11.35;;;9.25;;
33160;SDS011;19522;45.656;11.302;2023-09-12T06:47:58;11.02;;;9.57;;
33160;SDS011;19522;45.656;11.302;2023-09-12T06:50:23;10.50;;;9.40;;
33160;SDS011;19522;45.656;11.302;2023-09-12T06:52:49;10.38;;;9.25;;
33160;SDS011;19522;45.656;11.302;2023-09-12T06:55:14;13.57;;;8.77;;
33160;SDS011;19522;45.656;11.302;2023-09-12T06:57:40;11.93;;;9.55;;
33160;SDS011;19522;45.656;11.302;2023-09-12T07:00:05;11.00;;;8.90;;
33160;SDS011;19522;45.656;11.302;2023-09-12T07:02:32;10.60;;;9.07;;
33160;SDS011;19522;45.656;11.302;2023-09-12T07:04:58;12.27;;;8.77;;
33160;SDS011;19522;45.656;11.302;2023-09-12T07:07:24;11.32;;;9.10;;
33160;SDS011;19522;45.656;11.302;2023-09-12T07:09:49;11.98;;;9.05;;
33160;SDS011;19522;45.656;11.302;2023-09-12T07:12:15;11.27;;;9.13;;
33160;SDS011;19522;45.656;11.302;2023-09-12T07:14:40;14.75;;;9.23;;
33160;SDS011;19522;45.656;11.302;2023-09-12T07:17:06;13.90;;;9.05;;
33160;SDS011;19522;45.656;11.302;2023-09-12T07:19:31;11.63;;;9.20;;
33160;SDS011;19522;45.656;11.302;2023-09-12T07:21:57;13.02;;;8.82;;
33160;SDS011;19522;45.656;11.302;2023-09-12T07:24:26;12.75;;;9.43;;
33160;SDS011;19522;45.656;11.302;2023-09-12T07:26:52;10.32;;;9.20;;
33160;SDS011;19522;45.656;11.302;2023-09-12T07:29:17;11.73;;;8.77;;
33160;SDS011;19522;45.656;11.302;2023-09-12T07:31:43;10.20;;;8.18;;
33160;SDS011;19522;45.656;11.302;2023-09-12T07:34:08;11.43;;;9.40;;
33160;SDS011;19522;45.656;11.302;2023-09-12T07:36:35;10.90;;;8.75;;
33160;SDS011;19522;45.656;11.302;2023-09-12T07:39:01;12.45;;;8.75;;
33160;SDS011;19522;45.656;11.302;2023-09-12T07:41:28;9.52;;;8.52;;
33160;SDS011;19522;45.656;11.302;2023-09-12T07:43:54;9.88;;;8.20;;
33160;SDS011;19522;45.656;11.302;2023-09-12T07:46:19;12.60;;;8.73;;
33160;SDS011;19522;45.656;11.302;2023-09-12T07:48:45;11.88;;;7.70;;
33160;SDS011;19522;45.656;11.302;2023-09-12T07:51:11;10.40;;;8.20;;
33160;SDS011;19522;45.656;11.302;2023-09-12T07:53:38;9.98;;;8.23;;
33160;SDS011;19522;45.656;11.302;2023-09-12T07:56:03;12.55;;;8.88;;
33160;SDS011;19522;45.656;11.302;2023-09-12T07:58:29;12.95;;;8.93;;
33160;SDS011;19522;45.656;11.302;2023-09-12T08:00:54;10.48;;;8.88;;
33160;SDS011;19522;45.656;11.302;2023-09-12T08:03:20;10.48;;;7.93;;
33160;SDS011;19522;45.656;11.302;2023-09-12T08:05:54;10.90;;;9.18;;
33160;SDS011;19522;45.656;11.302;2023-09-12T08:08:22;11.27;;;8.27;;
33160;SDS011;19522;45.656;11.302;2023-09-12T08:10:48;10.93;;;8.27;;
33160;SDS011;19522;45.656;11.302;2023-09-12T08:13:14;12.60;;;8.55;;
33160;SDS011;19522;45.656;11.302;2023-09-12T08:15:40;12.25;;;8.93;;
33160;SDS011;19522;45.656;11.302;2023-09-12T08:18:05;13.18;;;8.18;;
33160;SDS011;19522;45.656;11.302;2023-09-12T08:20:31;12.02;;;8.35;;
33160;SDS011;19522;45.656;11.302;2023-09-12T08:22:56;14.40;;;8.13;;
33160;SDS011;19522;45.656;11.302;2023-09-12T08:25:22;10.02;;;7.97;;
33160;SDS011;19522;45.656;11.302;2023-09-12T08:27:49;11.32;;;7.80;;
33160;SDS011;19522;45.656;11.302;2023-09-12T08:30:17;11.63;;;8.30;;
33160;SDS011;19522;45.656;11.302;2023-09-12T08:32:43;13.00;;;8.27;;
33160;SDS011;19522;45.656;11.302;2023-09-12T08:35:12;11.82;;;7.95;;
33160;SDS011;19522;45.656;11.302;2023-09-12T08:37:41;11.02;;;7.72;;
33160;SDS011;19522;45.656;11.302;2023-09-12T08:40:08;9.35;;;8.35;;
33160;SDS011;19522;45.656;11.302;2023-09-12T08:42:40;11.55;;;8.50;;
33160;SDS011;19522;45.656;11.302;2023-09-12T08:45:14;10.50;;;7.93;;
33160;SDS011;19522;45.656;11.302;2023-09-12T08:47:42;11.23;;;8.25;;
33160;SDS011;19522;45.656;11.302;2023-09-12T08:50:15;13.40;;;8.80;;
33160;SDS011;19522;45.656;11.302;2023-09-12T08:52:44;9.57;;;8.20;;
33160;SDS011;19522;45.656;11.302;2023-09-12T08:55:11;13.15;;;8.55;;
33160;SDS011;19522;45.656;11.302;2023-09-12T08:57:41;12.48;;;8.20;;
33160;SDS011;19522;45.656;11.302;2023-09-12T09:00:08;12.90;;;9.07;;
33160;SDS011;19522;45.656;11.302;2023-09-12T09:02:39;11.80;;;8.25;;
33160;SDS011;19522;45.656;11.302;2023-09-12T09:05:05;12.93;;;8.35;;
33160;SDS011;19522;45.656;11.302;2023-09-12T09:07:37;10.55;;;8.45;;
33160;SDS011;19522;45.656;11.302;2023-09-12T09:10:04;10.98;;;8.10;;
33160;SDS011;19522;45.656;11.302;2023-09-12T09:12:31;11.85;;;8.73;;
33160;SDS011;19522;45.656;11.302;2023-09-12T09:14:57;15.40;;;9.88;;
33160;SDS011;19522;45.656;11.302;2023-09-12T09:17:23;11.15;;;8.77;;
33160;SDS011;19522;45.656;11.302;2023-09-12T09:19:49;11.10;;;8.73;;
33160;SDS011;19522;45.656;11.302;2023-09-12T09:22:15;11.15;;;8.90;;
33160;SDS011;19522;45.656;11.302;2023-09-12T09:24:41;14.40;;;8.98;;
33160;SDS011;19522;45.656;11.302;2023-09-12T09:27:06;11.57;;;8.85;;
33160;SDS011;19522;45.656;11.302;2023-09-12T09:29:32;12.10;;;9.90;;
33160;SDS011;19522;45.656;11.302;2023-09-12T09:32:17;14.25;;;9.48;;
33160;SDS011;19522;45.656;11.302;2023-09-12T09:34:44;11.77;;;8.38;;
33160;SDS011;19522;45.656;11.302;2023-09-12T09:37:09;11.60;;;9.48;;
33160;SDS011;19522;45.656;11.302;2023-09-12T09:39:35;14.95;;;9.73;;
33160;SDS011;19522;45.656;11.302;2023-09-12T09:42:01;13.70;;;9.05;;
33160;SDS011;19522;45.656;11.302;2023-09-12T09:44:26;13.27;;;8.75;;
33160;SDS011;19522;45.656;11.302;2023-09-12T09:46:59;11.95;;;9.57;;
33160;SDS011;19522;45.656;11.302;2023-09-12T09:49:27;10.85;;;9.38;;
33160;SDS011;19522;45.656;11.302;2023-09-12T09:51:59;12.60;;;9.80;;
33160;SDS011;19522;45.656;11.302;2023-09-12T09:54:27;13.07;;;9.32;;
33160;SDS011;19522;45.656;11.302;2023-09-12T09:56:53;15.10;;;10.25;;
33160;SDS011;19522;45.656;11.302;2023-09-12T09:59:27;15.02;;;10.10;;
33160;SDS011;19522;45.656;11.302;2023-09-12T10:01:56;13.35;;;9.98;;
33160;SDS011;19522;45.656;11.302;2023-09-12T10:04:23;13.75;;;9.52;;
33160;SDS011;19522;45.656;11.302;2023-09-12T10:06:51;12.13;;;9.20;;
33160;SDS011;19522;45.656;11.302;2023-09-12T10:09:21;12.75;;;8.63;;
33160;SDS011;19522;45.656;11.302;2023-09-12T10:11:51;12.13;;;9.10;;
33160;SDS011;19522;45.656;11.302;2023-09-12T10:14:18;13.70;;;8.60;;
33160;SDS011;19522;45.656;11.302;2023-09-12T10:16:46;11.50;;;8.50;;
33160;SDS011;19522;45.656;11.302;2023-09-12T10:24:34;14.15;;;9.98;;
33160;SDS011;19522;45.656;11.302;2023-09-12T10:27:01;12.60;;;9.60;;
33160;SDS011;19522;45.656;11.302;2023-09-12T10:29:29;12.40;;;9.77;;
33160;SDS011;19522;45.656;11.302;2023-09-12T10:31:56;14.13;;;10.38;;
33160;SDS011;19522;45.656;11.302;2023-09-12T10:34:21;14.02;;;9.82;;
33160;SDS011;19522;45.656;11.302;2023-09-12T10:36:52;13.70;;;10.57;;
33160;SDS011;19522;45.656;11.302;2023-09-12T10:39:20;14.68;;;10.77;;
33160;SDS011;19522;45.656;11.302;2023-09-12T10:41:47;16.10;;;11.90;;
33160;SDS011;19522;45.656;11.302;2023-09-12T10:44:16;20.60;;;10.88;;
33160;SDS011;19522;45.656;11.302;2023-09-12T10:46:43;15.07;;;12.02;;
33160;SDS011;19522;45.656;11.302;2023-09-12T10:49:11;18.73;;;11.38;;
33160;SDS011;19522;45.656;11.302;2023-09-12T10:51:43;18.40;;;11.85;;
33160;SDS011;19522;45.656;11.302;2023-09-12T10:54:14;18.25;;;13.05;;
33160;SDS011;19522;45.656;11.302;2023-09-12T10:56:41;17.52;;;12.88;;
33160;SDS011;19522;45.656;11.302;2023-09-12T10:59:09;13.65;;;11.88;;
33160;SDS011;19522;45.656;11.302;2023-09-12T11:01:37;16.73;;;12.23;;
33160;SDS011;19522;45.656;11.302;2023-09-12T11:06:45;17.73;;;14.98;;
33160;SDS011;19522;45.656;11.302;2023-09-12T11:11:39;19.48;;;14.27;;
33160;SDS011;19522;45.656;11.302;2023-09-12T11:14:12;21.33;;;14.63;;
33160;SDS011;19522;45.656;11.302;2023-09-12T11:16:38;20.27;;;14.32;;
33160;SDS011;19522;45.656;11.302;2023-09-12T11:19:14;17.25;;;13.20;;
33160;SDS011;19522;45.656;11.302;2023-09-12T11:21:42;21.13;;;15.50;;
33160;SDS011;19522;45.656;11.302;2023-09-12T11:24:12;18.20;;;15.20;;
33160;SDS011;19522;45.656;11.302;2023-09-12T11:26:54;18.63;;;13.50;;
33160;SDS011;19522;45.656;11.302;2023-09-12T11:29:28;16.90;;;14.25;;
33160;SDS011;19522;45.656;11.302;2023-09-12T11:32:36;19.48;;;13.70;;
33160;SDS011;19522;45.656;11.302;2023-09-12T11:35:05;18.55;;;14.70;;
33160;SDS011;19522;45.656;11.302;2023-09-12T11:37:32;20.17;;;13.63;;
33160;SDS011;19522;45.656;11.302;2023-09-12T11:40:02;18.70;;;13.38;;
33160;SDS011;19522;45.656;11.302;2023-09-12T11:42:39;20.15;;;14.73;;
33160;SDS011;19522;45.656;11.302;2023-09-12T11:45:09;20.20;;;15.23;;
33160;SDS011;19522;45.656;11.302;2023-09-12T11:47:44;20.20;;;13.48;;
33160;SDS011;19522;45.656;11.302;2023-09-12T11:53:01;17.90;;;13.75;;
33160;SDS011;19522;45.656;11.302;2023-09-12T11:55:42;17.67;;;13.82;;
33160;SDS011;19522;45.656;11.302;2023-09-12T11:58:10;16.27;;;12.45;;
33160;SDS011;19522;45.656;11.302;2023-09-12T12:00:37;16.77;;;12.80;;
33160;SDS011;19522;45.656;11.302;2023-09-12T12:03:11;19.25;;;14.52;;
33160;SDS011;19522;45.656;11.302;2023-09-12T12:05:37;16.50;;;12.23;;
33160;SDS011;19522;45.656;11.302;2023-09-12T12:08:03;17.30;;;14.30;;
33160;SDS011;19522;45.656;11.302;2023-09-12T12:10:32;19.35;;;13.40;;
33160;SDS011;19522;45.656;11.302;2023-09-12T12:12:58;14.75;;;13.18;;
33160;SDS011;19522;45.656;11.302;2023-09-12T12:15:28;22.67;;;15.57;;
33160;SDS011;19522;45.656;11.302;2023-09-12T12:17:56;17.30;;;13.63;;
33160;SDS011;19522;45.656;11.302;2023-09-12T12:20:24;17.60;;;13.98;;
33160;SDS011;19522;45.656;11.302;2023-09-12T12:22:50;17.52;;;12.23;;
33160;SDS011;19522;45.656;11.302;2023-09-12T12:25:19;16.65;;;13.18;;
33160;SDS011;19522;45.656;11.302;2023-09-12T12:27:45;15.18;;;13.32;;
33160;SDS011;19522;45.656;11.302;2023-09-12T12:30:14;25.00;;;15.52;;
33160;SDS011;19522;45.656;11.302;2023-09-12T12:32:43;17.13;;;13.65;;
33160;SDS011;19522;45.656;11.302;2023-09-12T12:35:20;19.67;;;14.25;;
33160;SDS011;19522;45.656;11.302;2023-09-12T12:37:51;18.17;;;14.48;;
33160;SDS011;19522;45.656;11.302;2023-09-12T12:43:15;23.48;;;16.08;;
33160;SDS011;19522;45.656;11.302;2023-09-12T12:45:57;16.98;;;13.15;;
33160;SDS011;19522;45.656;11.302;2023-09-12T12:48:35;16.17;;;12.48;;
33160;SDS011;19522;45.656;11.302;2023-09-12T12:53:50;20.25;;;12.82;;
33160;SDS011;19522;45.656;11.302;2023-09-12T12:56:18;17.23;;;14.35;;
33160;SDS011;19522;45.656;11.302;2023-09-12T12:58:49;15.50;;;11.88;;
33160;SDS011;19522;45.656;11.302;2023-09-12T13:01:20;18.27;;;12.88;;
33160;SDS011;19522;45.656;11.302;2023-09-12T13:03:46;17.67;;;13.40;;
33160;SDS011;19522;45.656;11.302;2023-09-12T13:06:14;16.83;;;13.55;;
33160;SDS011;19522;45.656;11.302;2023-09-12T13:08:40;18.10;;;14.50;;
33160;SDS011;19522;45.656;11.302;2023-09-12T13:11:09;17.27;;;12.48;;
33160;SDS011;19522;45.656;11.302;2023-09-12T13:13:36;17.35;;;11.90;;
33160;SDS011;19522;45.656;11.302;2023-09-12T13:16:06;17.98;;;14.05;;
33160;SDS011;19522;45.656;11.302;2023-09-12T13:18:34;17.98;;;13.63;;
33160;SDS011;19522;45.656;11.302;2023-09-12T13:21:01;20.33;;;12.40;;
33160;SDS011;19522;45.656;11.302;2023-09-12T13:23:27;19.70;;;13.55;;
33160;SDS011;19522;45.656;11.302;2023-09-12T13:25:53;21.08;;;14.45;;
33160;SDS011;19522;45.656;11.302;2023-09-12T13:28:18;19.13;;;14.77;;
33160;SDS011;19522;45.656;11.302;2023-09-12T13:30:44;18.45;;;14.05;;
33160;SDS011;19522;45.656;11.302;2023-09-12T13:33:10;14.85;;;13.27;;
33160;SDS011;19522;45.656;11.302;2023-09-12T13:35:37;19.58;;;13.93;;
33160;SDS011;19522;45.656;11.302;2023-09-12T13:38:03;19.88;;;12.60;;
33160;SDS011;19522;45.656;11.302;2023-09-12T13:40:35;18.85;;;14.50;;
33160;SDS011;19522;45.656;11.302;2023-09-12T13:43:03;18.40;;;13.10;;
33160;SDS011;19522;45.656;11.302;2023-09-12T13:45:29;18.67;;;13.57;;
33160;SDS011;19522;45.656;11.302;2023-09-12T13:47:54;16.77;;;14.00;;
33160;SDS011;19522;45.656;11.302;2023-09-12T13:50:20;17.48;;;13.15;;
33160;SDS011;19522;45.656;11.302;2023-09-12T13:52:45;18.35;;;13.13;;
33160;SDS011;19522;45.656;11.302;2023-09-12T13:55:11;18.92;;;14.93;;
33160;SDS011;19522;45.656;11.302;2023-09-12T13:57:39;17.30;;;13.25;;
33160;SDS011;19522;45.656;11.302;2023-09-12T14:00:05;16.95;;;14.25;;
33160;SDS011;19522;45.656;11.302;2023-09-12T14:02:31;21.67;;;16.40;;
33160;SDS011;19522;45.656;11.302;2023-09-12T14:05:00;19.10;;;14.90;;
33160;SDS011;19522;45.656;11.302;2023-09-12T14:07:26;19.60;;;16.13;;
33160;SDS011;19522;45.656;11.302;2023-09-12T14:09:52;15.63;;;13.10;;
33160;SDS011;19522;45.656;11.302;2023-09-12T14:12:22;15.88;;;14.27;;
33160;SDS011;19522;45.656;11.302;2023-09-12T14:14:48;19.83;;;14.88;;
33160;SDS011;19522;45.656;11.302;2023-09-12T14:17:13;18.60;;;14.60;;
33160;SDS011;19522;45.656;11.302;2023-09-12T14:19:39;19.25;;;15.13;;
33160;SDS011;19522;45.656;11.302;2023-09-12T14:22:05;19.52;;;14.60;;
33160;SDS011;19522;45.656;11.302;2023-09-12T14:24:30;17.83;;;13.55;;
33160;SDS011;19522;45.656;11.302;2023-09-12T14:26:56;15.88;;;13.18;;
33160;SDS011;19522;45.656;11.302;2023-09-12T14:29:21;19.27;;;16.00;;
33160;SDS011;19522;45.656;11.302;2023-09-12T14:31:48;17.23;;;13.57;;
33160;SDS011;19522;45.656;11.302;2023-09-12T14:34:22;18.00;;;13.88;;
33160;SDS011;19522;45.656;11.302;2023-09-12T14:36:53;16.65;;;12.68;;
33160;SDS011;19522;45.656;11.302;2023-09-12T14:39:20;16.10;;;14.52;;
33160;SDS011;19522;45.656;11.302;2023-09-12T14:41:46;18.48;;;14.93;;